Webcam & Weather

This webcam image will automatically refresh every 15 seconds.


METAR and TAF for EGLL Heathrow (12 Nautical Miles East of White Waltham)

METAR FOR EGLL (Issued: Sun, July 23rd 2017 10:20 PM UTC):
EGLL 232220Z AUTO 27008KT 9999 NCD 16/12 Q1012 NOSIG

TAF FOR EGLL (Issued: Sun, July 23rd 2017 6:15 PM UTC):
TAF TAF EGLL 231653Z 2318/2424 26010KT 9999 FEW025 TEMPO 2318/2321 7000 SHRA PROB30 TEMPO 2318/2320 4000 +SHRA BECMG 2400/2403 35010KT -RA BKN012 PROB30 TEMPO 2401/2406 7000 RA BKN008 TEMPO 2412/2418 BKN020 BECMG 2418/2421 SCT020

Play 24 hour timelapse | Play 30 day timelapse

Comments are closed.